Time;durP1;ratioP1;P1;durP2;ratioP2;P2;SDS_P1;SDS_P2;PMS_P1;PMS_P2;Temp;Humidity;BMP_temperature;BMP_pressure;BME280_temperature;BME280_humidity;BME280_pressure;Samples;Min_cycle;Max_cycle;Signal;HPM_P1;HPM_P2
2022/10/18 00:00:00;;;;;;;12.20;10.30;;;;;;;16.80;99.24;101807.83;102352;1287;60528;-71
2022/10/18 00:02:26;;;;;;;14.00;10.60;;;;;;;16.78;99.33;101808.92;103724;1293;61208;-72
2022/10/18 00:04:53;;;;;;;14.70;10.70;;;;;;;16.77;99.32;101810.31;103138;1301;60462;-72
2022/10/18 00:07:19;;;;;;;12.90;10.50;;;;;;;16.75;99.71;101811.10;102344;1288;60703;-72
2022/10/18 00:09:46;;;;;;;14.90;10.60;;;;;;;16.73;99.67;101810.67;103181;1302;60455;-72
2022/10/18 00:12:12;;;;;;;15.80;11.30;;;;;;;16.70;99.63;101809.19;102746;1301;60960;-71
2022/10/18 00:14:38;;;;;;;12.20;10.00;;;;;;;16.67;99.96;101805.38;102693;1287;60492;-72
2022/10/18 00:17:05;;;;;;;13.20;11.10;;;;;;;16.66;99.91;101808.71;102399;1304;60604;-71
2022/10/18 00:19:31;;;;;;;17.80;11.30;;;;;;;16.64;99.96;101810.11;102797;1297;60409;-71
2022/10/18 00:21:58;;;;;;;14.20;11.00;;;;;;;16.63;99.97;101813.27;102350;1304;60837;-72
2022/10/18 00:24:24;;;;;;;15.30;11.30;;;;;;;16.61;100.00;101815.06;102655;1297;60852;-71
2022/10/18 00:26:51;;;;;;;14.90;11.50;;;;;;;16.60;100.00;101815.77;102567;1295;60607;-71
2022/10/18 00:29:17;;;;;;;16.50;11.60;;;;;;;16.60;100.00;101815.80;102366;1300;60987;-72
2022/10/18 00:31:44;;;;;;;17.20;11.60;;;;;;;16.60;99.92;101821.48;103171;1297;60490;-73
2022/10/18 00:34:14;;;;;;;16.00;11.30;;;;;;;16.58;99.92;101821.91;102910;1295;60412;-73
2022/10/18 00:36:41;;;;;;;17.60;11.70;;;;;;;16.56;99.90;101823.95;103183;1297;61740;-72
2022/10/18 00:39:14;;;;;;;16.30;11.10;;;;;;;16.55;99.95;101820.34;102640;1303;60483;-72
2022/10/18 00:41:40;;;;;;;17.00;11.40;;;;;;;16.55;99.97;101822.14;102433;1297;72068;-72
2022/10/18 00:44:09;;;;;;;16.70;11.80;;;;;;;16.55;100.00;101822.89;102439;1288;60538;-72
2022/10/18 00:46:39;;;;;;;15.80;11.70;;;;;;;16.54;99.97;101826.75;102691;1302;72547;-73
2022/10/18 00:49:20;;;;;;;15.70;11.90;;;;;;;16.52;99.94;101829.95;102736;1302;60548;-72
2022/10/18 00:52:08;;;;;;;13.40;11.00;;;;;;;16.50;99.86;101836.23;102896;1297;60620;-72
2022/10/18 00:54:39;;;;;;;15.40;11.60;;;;;;;16.50;99.97;101835.73;102867;1305;71854;-71
2022/10/18 00:57:07;;;;;;;15.00;11.00;;;;;;;16.50;99.99;101833.80;102693;1297;71045;-72
2022/10/18 00:59:35;;;;;;;13.50;11.20;;;;;;;16.50;99.97;101830.58;102369;1298;72934;-72
2022/10/18 01:02:02;;;;;;;13.10;11.50;;;;;;;16.48;99.90;101825.16;102627;1295;62279;-72
2022/10/18 01:04:29;;;;;;;14.00;11.00;;;;;;;16.47;99.97;101828.64;102413;1305;60645;-70
2022/10/18 01:07:21;;;;;;;13.20;11.50;;;;;;;16.46;99.99;101831.40;102714;1297;60586;-71
2022/10/18 01:10:15;;;;;;;13.50;10.90;;;;;;;16.44;99.98;101833.02;102858;1296;69677;-73
2022/10/18 01:12:51;;;;;;;15.30;11.80;;;;;;;16.41;99.86;101834.41;103149;1295;71674;-72
2022/10/18 01:15:29;;;;;;;15.40;11.10;;;;;;;16.39;99.86;101837.60;102717;1302;60486;-72
2022/10/18 01:18:17;;;;;;;14.20;10.90;;;;;;;16.37;100.00;101836.77;102167;1302;60396;-71
2022/10/18 01:21:03;;;;;;;15.40;11.20;;;;;;;16.35;99.94;101838.05;102529;1294;73424;-72
2022/10/18 01:24:07;;;;;;;14.70;11.40;;;;;;;16.35;99.99;101837.96;102662;1288;69509;-72
2022/10/18 01:26:56;;;;;;;15.00;11.70;;;;;;;16.33;99.99;101841.52;103356;1297;72438;-72
2022/10/18 01:29:41;;;;;;;16.70;11.50;;;;;;;16.31;100.00;101842.49;103098;1284;62100;-72
2022/10/18 01:32:26;;;;;;;17.10;11.60;;;;;;;16.29;99.94;101834.52;102434;1300;61109;-71
2022/10/18 01:35:00;;;;;;;14.40;11.40;;;;;;;16.28;99.99;101831.12;102574;1297;72325;-73
2022/10/18 01:37:28;;;;;;;14.00;11.50;;;;;;;16.25;100.00;101820.91;102525;1302;70464;-72
2022/10/18 01:39:58;;;;;;;16.50;11.90;;;;;;;16.23;99.99;101817.33;102550;1304;72738;-72
2022/10/18 01:42:25;;;;;;;15.00;11.40;;;;;;;16.22;100.00;101809.12;102779;1288;61792;-72
2022/10/18 01:44:53;;;;;;;15.70;11.40;;;;;;;16.23;100.00;101806.69;103059;1306;60462;-72
2022/10/18 01:47:20;;;;;;;15.30;11.70;;;;;;;16.23;99.91;101806.98;102850;1304;72968;-72
2022/10/18 01:49:47;;;;;;;15.10;12.20;;;;;;;16.25;99.92;101804.30;102306;1301;70900;-72
2022/10/18 01:52:16;;;;;;;14.60;11.80;;;;;;;16.27;99.86;101804.45;102517;1297;60563;-72
2022/10/18 01:54:47;;;;;;;15.00;11.50;;;;;;;16.29;99.81;101807.90;102273;1288;60872;-72
2022/10/18 01:57:35;;;;;;;16.10;12.50;;;;;;;16.31;99.69;101804.10;102600;1289;60519;-73
2022/10/18 02:00:10;;;;;;;17.20;11.80;;;;;;;16.34;99.59;101803.80;102239;1302;72995;-72
2022/10/18 02:02:53;;;;;;;16.00;12.90;;;;;;;16.37;99.65;101798.10;103243;1298;70999;-72
2022/10/18 02:05:40;;;;;;;15.60;12.50;;;;;;;16.39;99.61;101799.58;102949;1303;72823;-72
2022/10/18 02:08:16;;;;;;;15.60;12.20;;;;;;;16.41;99.23;101799.90;102550;1297;60496;-72
2022/10/18 02:11:03;;;;;;;15.10;12.20;;;;;;;16.41;99.08;101796.85;102464;1302;60415;-72
2022/10/18 02:13:39;;;;;;;15.80;12.40;;;;;;;16.41;99.02;101796.82;102385;1304;72182;-72
2022/10/18 02:16:17;;;;;;;15.80;12.20;;;;;;;16.40;98.81;101793.58;102520;1298;68673;-72
2022/10/18 02:18:50;;;;;;;15.60;11.90;;;;;;;16.38;98.63;101790.42;102392;1288;72654;-72
2022/10/18 02:21:20;;;;;;;18.00;12.70;;;;;;;16.34;98.68;101788.06;102873;1301;60921;-72
2022/10/18 02:23:47;;;;;;;15.40;12.80;;;;;;;16.32;98.83;101792.41;102945;1298;60649;-72
2022/10/18 02:26:15;;;;;;;15.80;12.40;;;;;;;16.30;98.87;101791.75;103123;1296;74175;-72
2022/10/18 02:28:42;;;;;;;15.40;12.10;;;;;;;16.27;98.91;101794.90;102571;1289;71096;-71
2022/10/18 02:31:20;;;;;;;16.50;12.60;;;;;;;16.25;98.92;101797.00;102440;1295;71555;-73
2022/10/18 02:33:55;;;;;;;16.20;12.40;;;;;;;16.21;98.92;101793.90;102633;1295;61063;-72
2022/10/18 02:36:43;;;;;;;16.70;12.80;;;;;;;16.17;99.02;101788.88;102433;1297;60523;-72
2022/10/18 02:39:17;;;;;;;15.30;12.80;;;;;;;16.13;99.32;101784.33;103212;1295;74705;-72
2022/10/18 02:41:43;;;;;;;16.70;13.30;;;;;;;16.10;99.53;101781.08;103470;1302;69577;-73
2022/10/18 02:44:10;;;;;;;18.60;12.70;;;;;;;16.11;99.72;101772.65;102427;1281;71850;-73
2022/10/18 02:46:37;;;;;;;16.00;12.70;;;;;;;16.12;99.74;101773.81;102446;1290;60586;-72
2022/10/18 02:49:03;;;;;;;18.10;12.20;;;;;;;16.13;99.87;101774.66;102480;1295;60919;-72
2022/10/18 02:51:30;;;;;;;17.90;12.10;;;;;;;16.14;99.65;101773.09;102643;1295;60887;-71
2022/10/18 02:53:56;;;;;;;15.00;12.50;;;;;;;16.14;99.46;101774.21;102650;1295;60687;-72
2022/10/18 02:56:23;;;;;;;16.70;12.70;;;;;;;16.13;99.37;101777.71;102344;1300;60595;-72
2022/10/18 02:58:49;;;;;;;15.70;12.20;;;;;;;16.13;99.37;101775.60;103754;1289;60524;-72
2022/10/18 03:01:17;;;;;;;15.10;12.20;;;;;;;16.12;99.22;101777.93;102149;1295;275318;-72
2022/10/18 03:03:45;;;;;;;17.80;12.80;;;;;;;16.09;99.18;101769.95;102764;1298;71290;-72
2022/10/18 03:06:12;;;;;;;16.40;12.20;;;;;;;16.08;99.36;101764.23;102455;1302;69784;-72
2022/10/18 03:08:38;;;;;;;15.60;12.30;;;;;;;16.07;99.28;101759.55;102719;1297;61503;-72
2022/10/18 03:11:05;;;;;;;16.20;12.90;;;;;;;16.05;99.28;101758.89;102111;1297;61572;-72
2022/10/18 03:13:32;;;;;;;14.60;11.90;;;;;;;16.02;99.33;101761.40;102924;1296;60947;-72
2022/10/18 03:16:00;;;;;;;17.50;13.40;;;;;;;16.00;99.23;101768.24;103117;1304;72594;-74
2022/10/18 03:18:26;;;;;;;16.00;12.60;;;;;;;15.96;99.24;101768.19;102956;1305;69691;-72
2022/10/18 03:20:53;;;;;;;18.30;13.40;;;;;;;15.91;99.25;101767.30;102237;1297;71132;-72
2022/10/18 03:23:19;;;;;;;17.30;13.30;;;;;;;15.85;99.32;101772.29;102541;1302;60928;-70
2022/10/18 03:25:45;;;;;;;17.80;13.50;;;;;;;15.80;99.58;101776.15;102512;1294;60480;-72
2022/10/18 03:28:12;;;;;;;17.90;13.30;;;;;;;15.76;99.78;101774.53;102402;1304;60613;-72
2022/10/18 03:30:38;;;;;;;19.00;13.30;;;;;;;15.74;99.98;101767.46;102243;1304;60576;-71
2022/10/18 03:33:05;;;;;;;18.50;13.90;;;;;;;15.72;100.00;101762.79;103390;1302;61039;-71
2022/10/18 03:35:32;;;;;;;16.80;13.20;;;;;;;15.71;100.00;101769.14;103236;1291;61502;-72
2022/10/18 03:37:58;;;;;;;19.00;13.50;;;;;;;15.70;100.00;101768.02;102564;1302;60414;-71
2022/10/18 03:40:25;;;;;;;19.70;14.10;;;;;;;15.68;100.00;101770.36;102463;1302;60927;-72
2022/10/18 03:42:51;;;;;;;17.90;14.00;;;;;;;15.66;100.00;101771.17;102623;1295;60732;-72
2022/10/18 03:45:18;;;;;;;18.40;14.10;;;;;;;15.64;100.00;101768.05;102448;1297;61225;-72
2022/10/18 03:47:44;;;;;;;21.90;14.10;;;;;;;15.63;100.00;101760.06;102470;1295;60527;-72
2022/10/18 03:50:10;;;;;;;17.10;13.10;;;;;;;15.64;100.00;101751.03;102461;1297;60972;-71
2022/10/18 03:52:37;;;;;;;17.40;13.40;;;;;;;15.66;100.00;101744.46;103655;1305;59856;-72
2022/10/18 03:55:04;;;;;;;16.00;13.40;;;;;;;15.68;100.00;101745.45;102201;1298;60422;-72
2022/10/18 03:57:30;;;;;;;17.00;13.00;;;;;;;15.69;100.00;101747.84;102386;1297;60486;-72
2022/10/18 03:59:56;;;;;;;16.30;13.20;;;;;;;15.68;100.00;101744.02;102335;1295;60652;-71
2022/10/18 04:02:24;;;;;;;18.60;13.70;;;;;;;15.67;100.00;101749.14;102633;1289;60528;-72
2022/10/18 04:04:51;;;;;;;15.30;12.70;;;;;;;15.64;100.00;101752.13;102386;1297;72431;-71
2022/10/18 04:07:18;;;;;;;18.20;14.00;;;;;;;15.61;100.00;101754.97;103046;1302;69783;-72
2022/10/18 04:09:44;;;;;;;18.60;13.70;;;;;;;15.58;100.00;101754.30;103198;1294;60591;-72
2022/10/18 04:12:10;;;;;;;19.60;13.10;;;;;;;15.55;100.00;101756.95;102538;1295;61399;-72
2022/10/18 04:14:37;;;;;;;17.30;13.70;;;;;;;15.54;100.00;101754.25;102515;1304;61748;-72
2022/10/18 04:17:03;;;;;;;17.40;13.60;;;;;;;15.54;100.00;101748.70;102467;1305;60585;-73
2022/10/18 04:19:30;;;;;;;22.80;14.20;;;;;;;15.54;100.00;101748.02;103221;1272;60487;-72
2022/10/18 04:21:56;;;;;;;17.00;13.40;;;;;;;15.53;100.00;101753.52;102456;1305;61000;-72
2022/10/18 04:24:23;;;;;;;19.90;13.20;;;;;;;15.52;100.00;101751.98;102841;1290;59328;-72
2022/10/18 04:26:50;;;;;;;21.70;14.50;;;;;;;15.51;100.00;101755.10;103507;1298;60468;-72
2022/10/18 04:29:19;;;;;;;17.10;13.70;;;;;;;15.50;100.00;101757.55;102260;1304;73652;-72
2022/10/18 04:31:48;;;;;;;21.80;14.00;;;;;;;15.47;100.00;101763.63;102512;1294;69918;-71
2022/10/18 04:34:14;;;;;;;18.00;14.00;;;;;;;15.44;100.00;101760.41;102450;1297;60547;-71
2022/10/18 04:36:41;;;;;;;18.60;13.60;;;;;;;15.42;100.00;101755.09;102662;1297;60606;-72
2022/10/18 04:39:07;;;;;;;18.50;13.10;;;;;;;15.41;100.00;101749.48;102482;1298;60631;-72
2022/10/18 04:41:34;;;;;;;17.30;12.80;;;;;;;15.41;100.00;101748.81;102363;1290;60808;-71
2022/10/18 04:44:00;;;;;;;19.40;13.30;;;;;;;15.39;100.00;101752.62;102300;1299;60613;-71
2022/10/18 04:46:27;;;;;;;17.50;12.20;;;;;;;15.37;100.00;101753.70;103921;1300;61363;-72
2022/10/18 04:48:53;;;;;;;15.50;13.00;;;;;;;15.37;100.00;101753.96;102493;1290;60598;-71
2022/10/18 04:51:19;;;;;;;16.60;13.10;;;;;;;15.37;100.00;101750.92;102526;1304;60661;-72
2022/10/18 04:53:46;;;;;;;17.80;12.60;;;;;;;15.36;100.00;101751.86;102308;1304;60580;-72
2022/10/18 04:56:12;;;;;;;16.80;13.10;;;;;;;15.36;100.00;101749.18;102816;1297;60589;-71
2022/10/18 04:58:39;;;;;;;17.40;13.10;;;;;;;15.36;100.00;101748.70;102569;1304;60527;-73
2022/10/18 05:01:06;;;;;;;17.30;12.90;;;;;;;15.37;100.00;101749.28;102495;1298;60498;-73
2022/10/18 05:03:34;;;;;;;16.10;12.10;;;;;;;15.37;100.00;101754.23;103204;1295;60693;-72
2022/10/18 05:06:00;;;;;;;17.10;12.20;;;;;;;15.39;100.00;101757.46;103190;1297;72317;-72
2022/10/18 05:08:28;;;;;;;16.50;13.00;;;;;;;15.38;100.00;101761.23;102248;1303;71161;-71
2022/10/18 05:10:55;;;;;;;18.70;13.40;;;;;;;15.37;100.00;101761.58;103227;1298;60399;-72
2022/10/18 05:13:21;;;;;;;19.00;13.60;;;;;;;15.35;100.00;101767.55;103111;1288;60531;-72
2022/10/18 05:15:48;;;;;;;16.90;13.10;;;;;;;15.33;100.00;101764.33;103138;1287;60608;-72
2022/10/18 05:18:14;;;;;;;16.10;13.00;;;;;;;15.34;100.00;101766.09;103035;1301;60513;-72
2022/10/18 05:20:41;;;;;;;19.80;13.10;;;;;;;15.35;100.00;101767.14;103136;1291;60499;-71
2022/10/18 05:23:10;;;;;;;19.10;13.10;;;;;;;15.35;100.00;101772.86;102837;1293;60537;-72
2022/10/18 05:25:38;;;;;;;17.30;13.10;;;;;;;15.36;100.00;101777.23;102691;1303;60500;-74
2022/10/18 05:28:05;;;;;;;15.40;13.30;;;;;;;15.35;100.00;101773.90;102342;1298;60445;-74
2022/10/18 05:30:51;;;;;;;16.50;13.00;;;;;;;15.37;100.00;101774.77;102251;1304;76038;-72
2022/10/18 05:33:18;;;;;;;18.50;14.30;;;;;;;15.38;100.00;101777.92;102051;1297;60562;-72
2022/10/18 05:35:44;;;;;;;20.00;14.30;;;;;;;15.39;100.00;101781.52;102634;1304;60361;-72
2022/10/18 05:38:11;;;;;;;19.20;14.60;;;;;;;15.39;100.00;101782.21;102511;1288;60611;-72
2022/10/18 05:40:38;;;;;;;22.90;14.70;;;;;;;15.39;100.00;101782.52;103130;1301;60395;-72
2022/10/18 05:43:04;;;;;;;23.70;15.20;;;;;;;15.37;100.00;101780.42;102100;1296;74311;-72
2022/10/18 05:45:31;;;;;;;21.10;14.50;;;;;;;15.37;100.00;101787.13;102668;1304;60378;-72
2022/10/18 05:47:57;;;;;;;22.10;15.30;;;;;;;15.36;100.00;101790.05;102471;1299;60506;-72
2022/10/18 05:50:23;;;;;;;19.80;15.10;;;;;;;15.36;100.00;101787.15;102056;1304;60923;-72
2022/10/18 05:52:50;;;;;;;23.50;16.10;;;;;;;15.37;100.00;101786.02;102197;1304;60991;-72
2022/10/18 05:55:16;;;;;;;21.80;15.60;;;;;;;15.37;100.00;101793.30;102472;1298;60607;-72
2022/10/18 05:57:47;;;;;;;21.80;16.60;;;;;;;15.37;100.00;101794.77;102306;1304;60752;-72
2022/10/18 06:00:14;;;;;;;23.90;16.10;;;;;;;15.36;100.00;101794.02;103124;1297;72673;-72
2022/10/18 06:02:40;;;;;;;20.50;15.30;;;;;;;15.35;100.00;101793.55;102358;1304;60605;-72
2022/10/18 06:05:07;;;;;;;19.80;15.10;;;;;;;15.34;100.00;101795.38;102985;1305;60628;-73
2022/10/18 06:07:33;;;;;;;20.70;15.40;;;;;;;15.35;100.00;101799.84;104493;1299;58270;-72
2022/10/18 06:10:05;;;;;;;22.30;15.50;;;;;;;15.34;100.00;101806.45;102034;1296;69766;-72
2022/10/18 06:12:31;;;;;;;22.10;16.00;;;;;;;15.33;100.00;101803.36;102314;1281;72461;-72
2022/10/18 06:14:58;;;;;;;20.30;14.90;;;;;;;15.33;100.00;101805.23;102589;1304;60572;-73
2022/10/18 06:17:24;;;;;;;28.40;21.00;;;;;;;15.30;100.00;101806.59;103420;1298;60565;-73
2022/10/18 06:19:56;;;;;;;24.60;19.90;;;;;;;15.27;100.00;101809.95;103195;1296;73641;-73
2022/10/18 06:22:22;;;;;;;22.80;15.90;;;;;;;15.26;100.00;101809.91;102461;1304;70123;-71
2022/10/18 06:24:48;;;;;;;24.40;16.40;;;;;;;15.24;100.00;101816.90;102654;1303;60522;-72
2022/10/18 06:27:21;;;;;;;26.10;16.70;;;;;;;15.23;100.00;101820.61;102628;1297;61665;-72
2022/10/18 06:29:48;;;;;;;26.40;17.80;;;;;;;15.24;100.00;101824.63;101831;1298;61237;-72
2022/10/18 06:32:14;;;;;;;23.70;17.90;;;;;;;15.24;100.00;101821.23;102944;1272;60555;-73
2022/10/18 06:34:41;;;;;;;30.00;22.30;;;;;;;15.23;100.00;101823.94;103006;1298;61953;-74
2022/10/18 06:37:08;;;;;;;27.60;18.90;;;;;;;15.24;100.00;101826.85;103271;1272;60621;-72
2022/10/18 06:39:34;;;;;;;31.80;19.90;;;;;;;15.25;100.00;101829.75;102526;1304;60525;-72
2022/10/18 06:42:01;;;;;;;31.00;19.40;;;;;;;15.27;100.00;101828.67;102571;1304;60626;-74
2022/10/18 06:44:29;;;;;;;29.80;19.20;;;;;;;15.30;100.00;101827.61;102661;1297;60400;-73
2022/10/18 06:46:56;;;;;;;32.90;21.40;;;;;;;15.33;100.00;101826.71;102399;1297;70911;-72
2022/10/18 06:49:22;;;;;;;30.40;19.20;;;;;;;15.37;100.00;101831.42;101661;1296;60613;-73
2022/10/18 06:51:49;;;;;;;26.50;19.00;;;;;;;15.39;100.00;101832.11;102652;1297;60585;-73
2022/10/18 06:54:15;;;;;;;27.80;19.10;;;;;;;15.40;100.00;101833.02;102199;1300;60535;-74
2022/10/18 06:56:44;;;;;;;29.10;19.40;;;;;;;15.42;100.00;101839.38;102689;1296;74109;-73
2022/10/18 06:59:10;;;;;;;26.80;19.10;;;;;;;15.45;100.00;101837.21;102548;1300;60670;-72
2022/10/18 07:01:36;;;;;;;30.70;18.70;;;;;;;15.47;100.00;101835.13;102365;1303;60619;-73
2022/10/18 07:04:03;;;;;;;26.30;18.10;;;;;;;15.48;100.00;101832.41;102342;1303;61794;-73
2022/10/18 07:06:30;;;;;;;23.60;18.40;;;;;;;15.51;100.00;101834.23;102208;1303;60533;-73
2022/10/18 07:08:57;;;;;;;25.90;18.40;;;;;;;15.53;100.00;101837.83;102003;1297;60576;-72
2022/10/18 07:11:26;;;;;;;25.40;17.50;;;;;;;15.54;100.00;101839.83;102373;1296;72934;-73
2022/10/18 07:13:55;;;;;;;25.80;18.20;;;;;;;15.55;100.00;101841.53;102261;1298;71300;-73
2022/10/18 07:16:22;;;;;;;27.20;18.60;;;;;;;15.56;100.00;101839.77;102881;1298;60505;-73
2022/10/18 07:18:50;;;;;;;26.80;18.90;;;;;;;15.59;100.00;101838.39;102562;1304;60383;-73
2022/10/18 07:21:20;;;;;;;27.50;20.20;;;;;;;15.60;100.00;101833.96;102040;1304;72577;-73
2022/10/18 07:23:47;;;;;;;48.50;33.60;;;;;;;15.61;100.00;101833.98;102404;1305;71895;-73
2022/10/18 07:26:20;;;;;;;26.00;18.60;;;;;;;15.64;100.00;101837.44;102027;1304;71395;-73
2022/10/18 07:28:50;;;;;;;24.00;17.70;;;;;;;15.64;100.00;101841.02;102067;1304;61209;-74
2022/10/18 07:31:17;;;;;;;24.60;17.10;;;;;;;15.63;100.00;101839.95;102605;1304;61131;-73
2022/10/18 07:33:43;;;;;;;26.00;19.60;;;;;;;15.65;100.00;101839.63;103595;1296;73878;-73
2022/10/18 07:36:11;;;;;;;26.20;18.40;;;;;;;15.66;100.00;101841.20;102201;1301;60535;-74
2022/10/18 07:38:38;;;;;;;27.30;18.60;;;;;;;15.69;100.00;101837.13;102230;1296;71282;-73
2022/10/18 07:41:06;;;;;;;27.20;18.60;;;;;;;15.73;100.00;101838.86;102485;1289;61256;-73
2022/10/18 07:43:33;;;;;;;27.40;18.80;;;;;;;15.77;100.00;101840.36;102317;1305;60614;-73
2022/10/18 07:46:03;;;;;;;29.00;20.60;;;;;;;15.80;100.00;101835.54;102168;1304;74008;-73
2022/10/18 07:48:29;;;;;;;26.10;19.30;;;;;;;15.85;100.00;101832.63;102450;1304;69823;-72
2022/10/18 07:51:01;;;;;;;24.90;18.40;;;;;;;15.89;100.00;101834.09;102302;1299;72504;-72
2022/10/18 07:53:28;;;;;;;28.20;18.40;;;;;;;15.92;100.00;101837.73;102399;1298;62325;-73
2022/10/18 07:55:59;;;;;;;24.00;18.90;;;;;;;15.95;100.00;101836.48;102224;1302;60527;-73
2022/10/18 07:58:31;;;;;;;27.60;19.20;;;;;;;16.00;100.00;101837.17;102520;1299;73908;-72
2022/10/18 08:01:03;;;;;;;27.70;19.00;;;;;;;16.08;100.00;101834.87;103681;1284;70941;-73
2022/10/18 08:03:29;;;;;;;43.00;29.90;;;;;;;16.17;100.00;101832.16;102518;1295;71234;-72
2022/10/18 08:05:56;;;;;;;30.70;22.50;;;;;;;16.30;100.00;101830.82;102410;1297;61581;-72
2022/10/18 08:08:23;;;;;;;25.10;19.20;;;;;;;16.44;100.00;101822.85;103160;1294;60630;-73
2022/10/18 08:10:50;;;;;;;25.40;19.40;;;;;;;16.59;100.00;101821.46;102622;1294;72676;-73
2022/10/18 08:13:19;;;;;;;28.00;19.00;;;;;;;16.72;99.99;101821.49;102842;1303;72326;-73
2022/10/18 08:15:46;;;;;;;25.90;19.10;;;;;;;16.85;99.75;101822.61;102362;1295;72591;-72
2022/10/18 08:18:13;;;;;;;23.30;19.10;;;;;;;16.99;99.53;101828.72;102846;1288;60864;-72
2022/10/18 08:20:44;;;;;;;25.80;19.40;;;;;;;17.13;98.76;101830.20;102425;1301;60515;-72
2022/10/18 08:23:11;;;;;;;27.40;19.20;;;;;;;17.26;97.92;101826.69;102463;1302;74128;-72
2022/10/18 08:25:37;;;;;;;29.90;22.50;;;;;;;17.40;97.55;101822.70;104161;1288;68940;-73
2022/10/18 08:28:04;;;;;;;24.50;19.10;;;;;;;17.55;97.02;101824.27;104484;1294;59417;-72
2022/10/18 08:30:30;;;;;;;23.90;18.20;;;;;;;17.69;96.40;101833.71;103185;1295;60489;-72
2022/10/18 08:32:57;;;;;;;28.50;20.30;;;;;;;17.75;94.45;101833.52;102681;1303;60744;-72
2022/10/18 08:35:23;;;;;;;26.00;19.00;;;;;;;17.76;93.68;101834.84;102605;1294;60550;-72
2022/10/18 08:37:50;;;;;;;28.80;20.90;;;;;;;17.69;92.81;101835.56;102604;1297;60531;-72
2022/10/18 08:40:16;;;;;;;29.60;20.50;;;;;;;17.64;92.96;101836.08;102586;1304;60661;-72
2022/10/18 08:42:42;;;;;;;26.50;19.10;;;;;;;17.61;93.01;101839.05;103060;1301;61921;-72
2022/10/18 08:45:11;;;;;;;26.20;20.50;;;;;;;17.54;92.66;101835.42;102815;1302;60487;-72
2022/10/18 08:47:58;;;;;;;27.70;20.20;;;;;;;17.45;92.63;101837.52;102400;1297;76209;-73
2022/10/18 08:50:35;;;;;;;28.00;20.60;;;;;;;17.36;92.57;101838.22;103100;1288;60445;-74
2022/10/18 08:53:13;;;;;;;27.30;21.00;;;;;;;17.25;92.55;101836.28;102616;1287;71192;-73
2022/10/18 08:55:46;;;;;;;27.00;20.00;;;;;;;17.16;93.04;101831.13;102577;1294;61459;-74
2022/10/18 08:58:19;;;;;;;27.60;19.50;;;;;;;17.05;93.41;101841.61;102591;1289;61370;-73
2022/10/18 09:01:10;;;;;;;38.00;27.00;;;;;;;16.99;93.77;101842.89;102966;1304;73148;-74
2022/10/18 09:03:51;;;;;;;35.80;26.00;;;;;;;16.96;93.72;101846.98;102572;1295;69787;-73
2022/10/18 09:06:25;;;;;;;30.20;21.70;;;;;;;16.92;93.98;101849.73;102479;1302;70191;-74
2022/10/18 09:09:12;;;;;;;27.40;19.80;;;;;;;16.90;94.09;101856.30;103039;1304;61894;-73
2022/10/18 09:11:57;;;;;;;31.10;22.30;;;;;;;16.85;94.45;101858.34;102459;1297;61340;-73
2022/10/18 09:14:36;;;;;;;26.50;20.30;;;;;;;16.85;94.76;101864.36;102965;1295;74611;-74
2022/10/18 09:17:11;;;;;;;29.70;21.60;;;;;;;16.87;94.84;101872.38;103066;1302;71114;-72
2022/10/18 09:19:53;;;;;;;27.40;19.50;;;;;;;16.90;94.92;101873.65;102620;1305;73364;-72
2022/10/18 09:22:42;;;;;;;31.70;23.40;;;;;;;16.93;95.16;101872.29;102090;1290;62046;-72
2022/10/18 09:25:25;;;;;;;24.00;18.80;;;;;;;16.94;94.52;101877.24;103078;1298;61323;-73
2022/10/18 09:27:59;;;;;;;24.10;18.10;;;;;;;16.92;93.81;101878.49;102448;1304;73814;-72
2022/10/18 09:30:41;;;;;;;29.10;21.10;;;;;;;16.92;93.59;101877.59;102411;1298;69291;-74
2022/10/18 09:33:38;;;;;;;24.50;17.20;;;;;;;16.90;92.93;101877.16;102372;1298;72491;-72
2022/10/18 09:36:08;;;;;;;35.10;26.00;;;;;;;16.92;93.32;101880.02;102660;1298;61301;-73
2022/10/18 09:38:44;;;;;;;35.50;25.00;;;;;;;16.94;93.49;101884.17;102773;1296;62422;-74
2022/10/18 09:41:23;;;;;;;30.10;21.40;;;;;;;16.98;93.04;101886.44;102264;1299;75096;-72
2022/10/18 09:43:56;;;;;;;22.50;15.90;;;;;;;17.02;92.83;101887.48;102592;1296;71397;-74
2022/10/18 09:46:29;;;;;;;25.90;16.40;;;;;;;17.03;92.12;101893.27;102669;1298;71592;-73
2022/10/18 09:49:01;;;;;;;23.10;14.80;;;;;;;17.05;92.16;101890.36;102247;1291;61430;-72
2022/10/18 09:51:33;;;;;;;22.20;14.30;;;;;;;17.07;91.99;101885.30;102410;1294;62388;-73
2022/10/18 09:54:06;;;;;;;21.20;13.30;;;;;;;17.06;91.45;101889.17;103034;1288;73134;-72
2022/10/18 09:56:38;;;;;;;18.80;13.00;;;;;;;17.08;90.99;101889.75;102567;1298;69643;-73
2022/10/18 09:59:40;;;;;;;21.00;14.90;;;;;;;17.13;90.35;101886.51;103637;1291;71978;-73
2022/10/18 10:02:16;;;;;;;20.60;14.80;;;;;;;17.23;90.51;101888.30;103676;1296;61295;-72
2022/10/18 10:04:43;;;;;;;22.30;15.10;;;;;;;17.29;89.22;101892.95;103954;1301;61002;-72
2022/10/18 10:07:33;;;;;;;21.20;14.70;;;;;;;17.31;88.86;101898.03;102762;1291;73495;-72
2022/10/18 10:10:11;;;;;;;24.40;15.70;;;;;;;17.32;88.27;101895.45;102233;1293;70887;-73
2022/10/18 10:12:39;;;;;;;22.60;15.70;;;;;;;17.38;88.52;101891.83;102656;1294;71157;-73
2022/10/18 10:15:25;;;;;;;21.20;16.20;;;;;;;17.42;87.36;101889.56;102651;1288;61340;-72
2022/10/18 10:18:02;;;;;;;19.90;14.70;;;;;;;17.48;87.19;101892.19;102612;1291;61424;-73
2022/10/18 10:20:31;;;;;;;19.30;14.80;;;;;;;17.46;85.48;101896.39;103451;1293;75885;-72
2022/10/18 10:23:43;;;;;;;19.60;14.30;;;;;;;17.46;85.22;101894.18;102951;1290;71051;-72
2022/10/18 10:26:23;;;;;;;20.20;13.70;;;;;;;17.59;85.39;101899.56;103300;1297;72820;-72
2022/10/18 10:28:50;;;;;;;20.50;14.10;;;;;;;17.64;84.74;101899.33;102594;1304;61295;-72
2022/10/18 10:31:23;;;;;;;17.10;12.60;;;;;;;17.65;84.61;101896.27;103018;1288;61221;-73
2022/10/18 10:33:59;;;;;;;21.60;13.40;;;;;;;17.64;84.21;101898.83;102210;1298;76908;-73
2022/10/18 10:36:28;;;;;;;18.30;12.40;;;;;;;17.66;84.40;101903.61;102245;1299;71177;-73
2022/10/18 10:39:24;;;;;;;17.80;11.80;;;;;;;17.76;84.27;101898.75;103561;1296;71777;-73
2022/10/18 10:41:57;;;;;;;17.80;12.40;;;;;;;18.02;83.96;101898.34;102125;1304;61483;-73
2022/10/18 10:44:31;;;;;;;21.90;13.00;;;;;;;18.21;82.37;101893.93;101863;1291;61385;-73
2022/10/18 10:46:58;;;;;;;17.00;12.00;;;;;;;18.36;81.48;101893.95;102225;1298;75322;-73
2022/10/18 10:49:41;;;;;;;17.80;11.80;;;;;;;18.56;80.66;101890.35;103627;1294;71016;-72
2022/10/18 10:52:20;;;;;;;15.20;9.90;;;;;;;18.75;78.69;101889.37;102473;1304;71352;-72
2022/10/18 10:54:56;;;;;;;14.30;7.90;;;;;;;18.90;77.55;101889.54;102520;1288;62704;-73
2022/10/18 10:57:45;;;;;;;13.70;6.80;;;;;;;18.82;73.82;101891.44;102154;1307;61351;-73
2022/10/18 11:00:50;;;;;;;12.80;7.80;;;;;;;18.69;73.75;101889.71;102524;1290;74577;-73
2022/10/18 11:03:19;;;;;;;13.30;7.60;;;;;;;18.57;73.61;101886.80;102485;1288;72092;-71
2022/10/18 11:06:00;;;;;;;13.80;7.90;;;;;;;18.56;74.60;101893.61;102344;1305;75023;-71
2022/10/18 11:08:38;;;;;;;19.20;13.30;;;;;;;18.62;75.31;101895.09;102564;1305;61613;-72
2022/10/18 11:11:18;;;;;;;13.60;9.00;;;;;;;18.83;76.14;101892.27;102255;1304;61664;-73
2022/10/18 11:13:54;;;;;;;15.00;8.10;;;;;;;18.90;73.59;101893.39;102167;1296;74047;-72
2022/10/18 11:17:01;;;;;;;28.30;20.00;;;;;;;18.91;73.06;101879.36;102448;1303;73074;-72